TimeEDT,TemperatureF,Dew PointF,Humidity,Sea Level PressureIn,VisibilityMPH,Wind Direction,Wind SpeedMPH,Gust SpeedMPH,PrecipitationIn,Events,Conditions,WindDirDegrees,DateUTC
12:15 AM,39.2,33.8,81,30.36,10.0,South,4.6,-,N/A,,Clear,190,2011-10-07 04:15:00
12:35 AM,39.2,32.0,75,30.37,10.0,ESE,8.1,-,N/A,,Clear,120,2011-10-07 04:35:00
12:55 AM,39.2,32.0,75,30.37,10.0,ESE,5.8,-,N/A,,Clear,120,2011-10-07 04:55:00
1:15 AM,37.4,32.0,81,30.37,10.0,ESE,5.8,-,N/A,,Clear,120,2011-10-07 05:15:00
1:35 AM,37.4,32.0,81,30.37,10.0,ESE,5.8,-,N/A,,Clear,120,2011-10-07 05:35:00
1:55 AM,37.4,32.0,81,30.38,10.0,SE,4.6,-,N/A,,Clear,130,2011-10-07 05:55:00
2:15 AM,37.4,32.0,81,30.38,10.0,SE,4.6,-,N/A,,Clear,130,2011-10-07 06:15:00
2:35 AM,35.6,32.0,87,30.38,10.0,SSE,8.1,-,N/A,,Mostly Cloudy,150,2011-10-07 06:35:00
2:55 AM,37.4,32.0,81,30.38,10.0,SSE,6.9,-,N/A,,Overcast,150,2011-10-07 06:55:00
3:35 AM,37.4,33.8,87,30.38,10.0,Calm,Calm,-,N/A,,Overcast,0,2011-10-07 07:35:00
3:55 AM,37.4,32.0,81,30.38,10.0,ESE,4.6,-,N/A,,Overcast,120,2011-10-07 07:55:00
4:15 AM,35.6,32.0,87,30.39,10.0,Calm,Calm,-,N/A,,Partly Cloudy,0,2011-10-07 08:15:00
4:35 AM,35.6,30.2,81,30.39,10.0,ESE,5.8,-,N/A,,Clear,120,2011-10-07 08:35:00
4:55 AM,35.6,30.2,81,30.39,10.0,SE,9.2,-,N/A,,Clear,140,2011-10-07 08:55:00
5:15 AM,35.6,30.2,81,30.40,10.0,SE,8.1,-,N/A,,Clear,130,2011-10-07 09:15:00
5:35 AM,33.8,30.2,87,30.41,10.0,SE,6.9,-,N/A,,Clear,130,2011-10-07 09:35:00
5:55 AM,35.6,30.2,81,30.41,10.0,SE,6.9,-,N/A,,Clear,130,2011-10-07 09:55:00
6:15 AM,33.8,30.2,87,30.41,10.0,SE,5.8,-,N/A,,Clear,130,2011-10-07 10:15:00
6:35 AM,33.8,30.2,87,30.42,10.0,SE,6.9,-,N/A,,Clear,140,2011-10-07 10:35:00
6:55 AM,33.8,30.2,87,30.42,10.0,SE,9.2,-,N/A,,Clear,130,2011-10-07 10:55:00
7:15 AM,33.8,30.2,87,30.42,10.0,SE,8.1,-,N/A,,Clear,130,2011-10-07 11:15:00
7:35 AM,33.8,30.2,87,30.42,10.0,SE,5.8,-,N/A,,Clear,140,2011-10-07 11:35:00
7:55 AM,33.8,30.2,87,30.43,10.0,SE,4.6,-,N/A,,Clear,130,2011-10-07 11:55:00
8:15 AM,35.6,30.2,81,30.44,10.0,SE,5.8,-,N/A,,Clear,130,2011-10-07 12:15:00
8:35 AM,37.4,32.0,81,30.45,10.0,ESE,4.6,-,N/A,,Clear,120,2011-10-07 12:35:00
8:55 AM,37.4,32.0,81,30.45,10.0,Calm,Calm,-,N/A,,Clear,0,2011-10-07 12:55:00
9:15 AM,39.2,33.8,81,30.45,10.0,Calm,Calm,-,N/A,,Clear,0,2011-10-07 13:15:00
9:35 AM,42.8,35.6,76,30.46,10.0,Calm,Calm,-,N/A,,Clear,0,2011-10-07 13:35:00
9:55 AM,44.6,35.6,71,30.45,10.0,Calm,Calm,-,N/A,,Clear,0,2011-10-07 13:55:00
10:15 AM,46.4,35.6,66,30.45,10.0,Calm,Calm,-,N/A,,Clear,0,2011-10-07 14:15:00
10:35 AM,48.2,35.6,62,30.45,10.0,Calm,Calm,-,N/A,,Clear,0,2011-10-07 14:35:00
10:55 AM,51.8,35.6,54,30.45,10.0,Calm,Calm,-,N/A,,Clear,0,2011-10-07 14:55:00
11:15 AM,53.6,32.0,44,30.45,10.0,Calm,Calm,-,N/A,,Clear,0,2011-10-07 15:15:00
11:35 AM,53.6,33.8,47,30.44,10.0,Calm,Calm,-,N/A,,Clear,0,2011-10-07 15:35:00
11:55 AM,55.4,33.8,44,30.44,10.0,Calm,Calm,-,N/A,,Clear,0,2011-10-07 15:55:00
12:15 PM,55.4,30.2,38,30.43,10.0,WNW,5.8,-,N/A,,Clear,300,2011-10-07 16:15:00
12:35 PM,57.2,32.0,38,30.43,10.0,NNE,5.8,-,N/A,,Clear,20,2011-10-07 16:35:00
12:55 PM,57.2,33.8,41,30.43,10.0,NNW,3.5,-,N/A,,Clear,340,2011-10-07 16:55:00
1:35 PM,60.8,35.6,39,30.41,10.0,ENE,5.8,-,N/A,,Clear,70,2011-10-07 17:35:00
1:55 PM,60.8,35.6,39,30.41,10.0,WSW,4.6,-,N/A,,Clear,240,2011-10-07 17:55:00
2:15 PM,60.8,35.6,39,30.40,10.0,WNW,4.6,-,N/A,,Clear,300,2011-10-07 18:15:00
2:35 PM,62.6,37.4,39,30.40,10.0,WNW,3.5,-,N/A,,Clear,290,2011-10-07 18:35:00
2:55 PM,62.6,35.6,37,30.39,10.0,NNE,4.6,-,N/A,,Clear,30,2011-10-07 18:55:00
3:35 PM,62.6,37.4,39,30.39,10.0,NW,3.5,-,N/A,,Clear,310,2011-10-07 19:35:00
4:15 PM,62.6,37.4,39,30.39,10.0,West,3.5,-,N/A,,Clear,280,2011-10-07 20:15:00
4:35 PM,62.6,37.4,39,30.39,10.0,West,3.5,-,N/A,,Clear,260,2011-10-07 20:35:00
5:15 PM,62.6,37.4,39,30.39,10.0,WSW,4.6,-,N/A,,Clear,250,2011-10-07 21:15:00
5:35 PM,62.6,39.2,42,30.39,10.0,WSW,4.6,-,N/A,,Clear,240,2011-10-07 21:35:00
5:55 PM,60.8,41.0,48,30.39,10.0,West,5.8,-,N/A,,Clear,270,2011-10-07 21:55:00
6:15 PM,59.0,42.8,55,30.40,10.0,WSW,5.8,-,N/A,,Clear,250,2011-10-07 22:15:00
6:35 PM,55.4,44.6,67,30.40,10.0,Calm,Calm,-,N/A,,Clear,0,2011-10-07 22:35:00
6:55 PM,51.8,42.8,71,30.41,10.0,Calm,Calm,-,N/A,,Clear,0,2011-10-07 22:55:00
7:15 PM,51.8,42.8,71,30.41,10.0,ESE,5.8,-,N/A,,Clear,120,2011-10-07 23:15:00
7:35 PM,51.8,42.8,71,30.41,10.0,Calm,Calm,-,N/A,,Clear,0,2011-10-07 23:35:00
7:55 PM,51.8,42.8,71,30.41,10.0,SE,3.5,-,N/A,,Clear,130,2011-10-07 23:55:00
8:15 PM,48.2,42.8,82,30.41,10.0,SE,6.9,-,N/A,,Clear,140,2011-10-08 00:15:00
8:35 PM,48.2,42.8,82,30.41,10.0,SE,8.1,-,N/A,,Clear,140,2011-10-08 00:35:00
8:55 PM,48.2,42.8,82,30.42,10.0,SE,8.1,-,N/A,,Clear,130,2011-10-08 00:55:00
9:15 PM,48.2,42.8,82,30.42,10.0,SE,8.1,-,N/A,,Clear,130,2011-10-08 01:15:00
9:35 PM,48.2,42.8,82,30.42,10.0,SSE,6.9,-,N/A,,Clear,150,2011-10-08 01:35:00
9:55 PM,46.4,41.0,81,30.42,10.0,SE,8.1,-,N/A,,Clear,140,2011-10-08 01:55:00
10:15 PM,46.4,41.0,81,30.42,10.0,SE,9.2,-,N/A,,Clear,140,2011-10-08 02:15:00
10:35 PM,46.4,41.0,81,30.42,10.0,SE,9.2,-,N/A,,Clear,130,2011-10-08 02:35:00
10:55 PM,46.4,41.0,81,30.42,10.0,SE,10.4,-,N/A,,Clear,130,2011-10-08 02:55:00
11:15 PM,46.4,41.0,81,30.42,10.0,SE,9.2,-,N/A,,Clear,130,2011-10-08 03:15:00
11:35 PM,46.4,39.2,76,30.43,10.0,ESE,8.1,-,N/A,,Clear,120,2011-10-08 03:35:00
11:55 PM,46.4,39.2,76,30.43,10.0,SE,8.1,-,N/A,,Clear,130,2011-10-08 03:55:00